sensor_id;sensor_type;location;lat;lon;timestamp;P1;durP1;ratioP1;P2;durP2;ratioP2
11431;SDS011;5772;50.940;6.782;2023-04-24T00:02:22;19.43;;;18.63;;
11431;SDS011;5772;50.940;6.782;2023-04-24T00:04:49;18.73;;;18.03;;
11431;SDS011;5772;50.940;6.782;2023-04-24T00:07:14;19.40;;;18.60;;
11431;SDS011;5772;50.940;6.782;2023-04-24T00:09:40;19.37;;;18.57;;
11431;SDS011;5772;50.940;6.782;2023-04-24T00:12:05;19.23;;;18.50;;
11431;SDS011;5772;50.940;6.782;2023-04-24T00:14:30;19.47;;;18.37;;
11431;SDS011;5772;50.940;6.782;2023-04-24T00:16:56;20.30;;;19.50;;
11431;SDS011;5772;50.940;6.782;2023-04-24T00:19:21;18.93;;;18.23;;
11431;SDS011;5772;50.940;6.782;2023-04-24T00:21:48;20.00;;;19.00;;
11431;SDS011;5772;50.940;6.782;2023-04-24T00:24:13;19.93;;;19.13;;
11431;SDS011;5772;50.940;6.782;2023-04-24T00:26:39;20.83;;;19.83;;
11431;SDS011;5772;50.940;6.782;2023-04-24T00:29:04;19.43;;;18.63;;
11431;SDS011;5772;50.940;6.782;2023-04-24T00:31:30;19.93;;;19.13;;
11431;SDS011;5772;50.940;6.782;2023-04-24T00:33:55;19.77;;;18.97;;
11431;SDS011;5772;50.940;6.782;2023-04-24T00:36:20;19.67;;;18.87;;
11431;SDS011;5772;50.940;6.782;2023-04-24T00:38:47;19.10;;;18.30;;
11431;SDS011;5772;50.940;6.782;2023-04-24T00:41:12;20.03;;;19.20;;
11431;SDS011;5772;50.940;6.782;2023-04-24T00:43:38;19.80;;;19.00;;
11431;SDS011;5772;50.940;6.782;2023-04-24T00:46:04;19.30;;;18.50;;
11431;SDS011;5772;50.940;6.782;2023-04-24T00:48:29;18.80;;;17.97;;
11431;SDS011;5772;50.940;6.782;2023-04-24T00:50:55;20.07;;;19.27;;
11431;SDS011;5772;50.940;6.782;2023-04-24T00:53:21;19.87;;;19.07;;
11431;SDS011;5772;50.940;6.782;2023-04-24T00:55:48;19.13;;;18.40;;
11431;SDS011;5772;50.940;6.782;2023-04-24T00:58:13;18.87;;;18.07;;
11431;SDS011;5772;50.940;6.782;2023-04-24T01:00:38;20.37;;;19.57;;
11431;SDS011;5772;50.940;6.782;2023-04-24T01:03:04;20.17;;;19.37;;
11431;SDS011;5772;50.940;6.782;2023-04-24T01:05:30;19.17;;;18.37;;
11431;SDS011;5772;50.940;6.782;2023-04-24T01:07:55;20.87;;;19.57;;
11431;SDS011;5772;50.940;6.782;2023-04-24T01:10:21;19.13;;;18.33;;
11431;SDS011;5772;50.940;6.782;2023-04-24T01:12:49;19.13;;;18.33;;
11431;SDS011;5772;50.940;6.782;2023-04-24T01:15:15;19.43;;;18.63;;
11431;SDS011;5772;50.940;6.782;2023-04-24T01:17:40;20.27;;;19.37;;
11431;SDS011;5772;50.940;6.782;2023-04-24T01:20:06;19.00;;;18.20;;
11431;SDS011;5772;50.940;6.782;2023-04-24T01:22:33;19.97;;;19.07;;
11431;SDS011;5772;50.940;6.782;2023-04-24T01:24:59;22.50;;;21.50;;
11431;SDS011;5772;50.940;6.782;2023-04-24T01:27:24;20.63;;;19.70;;
11431;SDS011;5772;50.940;6.782;2023-04-24T01:29:50;20.77;;;19.87;;
11431;SDS011;5772;50.940;6.782;2023-04-24T01:32:15;21.60;;;20.60;;
11431;SDS011;5772;50.940;6.782;2023-04-24T01:34:40;22.13;;;21.03;;
11431;SDS011;5772;50.940;6.782;2023-04-24T01:37:06;20.37;;;19.37;;
11431;SDS011;5772;50.940;6.782;2023-04-24T01:39:33;22.07;;;20.87;;
11431;SDS011;5772;50.940;6.782;2023-04-24T01:41:58;23.70;;;22.50;;
11431;SDS011;5772;50.940;6.782;2023-04-24T01:44:24;22.17;;;21.07;;
11431;SDS011;5772;50.940;6.782;2023-04-24T01:46:50;22.20;;;21.17;;
11431;SDS011;5772;50.940;6.782;2023-04-24T01:49:15;21.43;;;20.27;;
11431;SDS011;5772;50.940;6.782;2023-04-24T01:51:40;21.83;;;20.80;;
11431;SDS011;5772;50.940;6.782;2023-04-24T01:54:06;24.10;;;22.80;;
11431;SDS011;5772;50.940;6.782;2023-04-24T01:56:33;24.17;;;23.07;;
11431;SDS011;5772;50.940;6.782;2023-04-24T01:58:59;24.67;;;23.20;;
11431;SDS011;5772;50.940;6.782;2023-04-24T02:01:25;27.80;;;26.40;;
11431;SDS011;5772;50.940;6.782;2023-04-24T02:03:50;25.73;;;24.47;;
11431;SDS011;5772;50.940;6.782;2023-04-24T02:06:16;27.23;;;25.93;;
11431;SDS011;5772;50.940;6.782;2023-04-24T02:08:41;29.77;;;28.27;;
11431;SDS011;5772;50.940;6.782;2023-04-24T02:11:08;29.73;;;28.23;;
11431;SDS011;5772;50.940;6.782;2023-04-24T02:13:35;28.90;;;27.40;;
11431;SDS011;5772;50.940;6.782;2023-04-24T02:16:00;28.60;;;27.20;;
11431;SDS011;5772;50.940;6.782;2023-04-24T02:18:26;29.53;;;27.93;;
11431;SDS011;5772;50.940;6.782;2023-04-24T02:20:51;31.87;;;30.23;;
11431;SDS011;5772;50.940;6.782;2023-04-24T02:23:16;32.10;;;30.43;;
11431;SDS011;5772;50.940;6.782;2023-04-24T02:25:42;29.10;;;27.67;;
11431;SDS011;5772;50.940;6.782;2023-04-24T02:28:07;28.63;;;26.90;;
11431;SDS011;5772;50.940;6.782;2023-04-24T02:30:34;29.73;;;28.23;;
11431;SDS011;5772;50.940;6.782;2023-04-24T02:32:59;30.03;;;28.57;;
11431;SDS011;5772;50.940;6.782;2023-04-24T02:35:25;30.53;;;29.13;;
11431;SDS011;5772;50.940;6.782;2023-04-24T02:37:50;29.07;;;27.47;;
11431;SDS011;5772;50.940;6.782;2023-04-24T02:40:15;28.80;;;27.30;;
11431;SDS011;5772;50.940;6.782;2023-04-24T02:42:41;29.90;;;28.50;;
11431;SDS011;5772;50.940;6.782;2023-04-24T02:45:07;29.77;;;28.17;;
11431;SDS011;5772;50.940;6.782;2023-04-24T02:47:34;29.53;;;28.17;;
11431;SDS011;5772;50.940;6.782;2023-04-24T02:49:59;28.70;;;27.30;;
11431;SDS011;5772;50.940;6.782;2023-04-24T02:52:25;28.57;;;27.23;;
11431;SDS011;5772;50.940;6.782;2023-04-24T02:54:50;28.60;;;27.20;;
11431;SDS011;5772;50.940;6.782;2023-04-24T02:57:15;29.53;;;28.03;;
11431;SDS011;5772;50.940;6.782;2023-04-24T02:59:41;28.43;;;26.87;;
11431;SDS011;5772;50.940;6.782;2023-04-24T03:02:06;28.73;;;27.33;;
11431;SDS011;5772;50.940;6.782;2023-04-24T03:04:33;29.53;;;27.70;;
11431;SDS011;5772;50.940;6.782;2023-04-24T03:06:58;30.17;;;28.37;;
11431;SDS011;5772;50.940;6.782;2023-04-24T03:09:24;29.70;;;28.20;;
11431;SDS011;5772;50.940;6.782;2023-04-24T03:11:49;31.37;;;29.83;;
11431;SDS011;5772;50.940;6.782;2023-04-24T03:14:14;32.10;;;30.40;;
11431;SDS011;5772;50.940;6.782;2023-04-24T03:16:40;32.17;;;30.43;;
11431;SDS011;5772;50.940;6.782;2023-04-24T03:19:05;31.73;;;30.00;;
11431;SDS011;5772;50.940;6.782;2023-04-24T03:21:32;30.47;;;28.97;;
11431;SDS011;5772;50.940;6.782;2023-04-24T03:23:57;32.73;;;30.83;;
11431;SDS011;5772;50.940;6.782;2023-04-24T03:26:23;30.93;;;29.33;;
11431;SDS011;5772;50.940;6.782;2023-04-24T03:28:48;31.77;;;30.10;;
11431;SDS011;5772;50.940;6.782;2023-04-24T03:31:13;30.63;;;28.83;;
11431;SDS011;5772;50.940;6.782;2023-04-24T03:33:39;31.23;;;29.60;;
11431;SDS011;5772;50.940;6.782;2023-04-24T03:36:04;30.73;;;29.03;;
11431;SDS011;5772;50.940;6.782;2023-04-24T03:38:31;29.33;;;27.73;;
11431;SDS011;5772;50.940;6.782;2023-04-24T03:40:56;29.70;;;28.17;;
11431;SDS011;5772;50.940;6.782;2023-04-24T03:43:22;29.03;;;27.63;;
11431;SDS011;5772;50.940;6.782;2023-04-24T03:45:47;29.03;;;27.47;;
11431;SDS011;5772;50.940;6.782;2023-04-24T03:48:12;30.40;;;28.80;;
11431;SDS011;5772;50.940;6.782;2023-04-24T03:50:38;30.20;;;28.70;;
11431;SDS011;5772;50.940;6.782;2023-04-24T03:53:03;28.80;;;27.23;;
11431;SDS011;5772;50.940;6.782;2023-04-24T03:55:30;28.03;;;26.63;;
11431;SDS011;5772;50.940;6.782;2023-04-24T03:57:55;28.90;;;27.43;;
11431;SDS011;5772;50.940;6.782;2023-04-24T04:00:20;29.43;;;28.03;;
11431;SDS011;5772;50.940;6.782;2023-04-24T04:02:46;30.00;;;28.40;;
11431;SDS011;5772;50.940;6.782;2023-04-24T04:05:11;30.50;;;28.93;;
11431;SDS011;5772;50.940;6.782;2023-04-24T04:07:37;31.73;;;30.20;;
11431;SDS011;5772;50.940;6.782;2023-04-24T04:10:02;31.37;;;29.67;;
11431;SDS011;5772;50.940;6.782;2023-04-24T04:12:29;30.07;;;28.37;;
11431;SDS011;5772;50.940;6.782;2023-04-24T04:14:55;30.57;;;29.07;;
11431;SDS011;5772;50.940;6.782;2023-04-24T04:17:20;31.67;;;29.80;;
11431;SDS011;5772;50.940;6.782;2023-04-24T04:19:45;31.07;;;29.30;;
11431;SDS011;5772;50.940;6.782;2023-04-24T04:22:11;31.97;;;30.33;;
11431;SDS011;5772;50.940;6.782;2023-04-24T04:24:36;31.57;;;29.83;;
11431;SDS011;5772;50.940;6.782;2023-04-24T04:27:01;31.43;;;29.80;;
11431;SDS011;5772;50.940;6.782;2023-04-24T04:29:28;30.13;;;28.63;;
11431;SDS011;5772;50.940;6.782;2023-04-24T04:31:53;29.57;;;28.10;;
11431;SDS011;5772;50.940;6.782;2023-04-24T04:34:19;31.17;;;29.47;;
11431;SDS011;5772;50.940;6.782;2023-04-24T04:36:44;30.30;;;28.87;;
11431;SDS011;5772;50.940;6.782;2023-04-24T04:39:09;31.63;;;30.13;;
11431;SDS011;5772;50.940;6.782;2023-04-24T04:41:35;33.40;;;31.70;;
11431;SDS011;5772;50.940;6.782;2023-04-24T04:44:00;31.43;;;29.93;;
11431;SDS011;5772;50.940;6.782;2023-04-24T04:46:27;31.60;;;30.10;;
11431;SDS011;5772;50.940;6.782;2023-04-24T04:48:52;29.50;;;28.10;;
11431;SDS011;5772;50.940;6.782;2023-04-24T04:51:18;29.70;;;28.10;;
11431;SDS011;5772;50.940;6.782;2023-04-24T04:53:43;30.70;;;29.30;;
11431;SDS011;5772;50.940;6.782;2023-04-24T04:56:08;29.63;;;28.13;;
11431;SDS011;5772;50.940;6.782;2023-04-24T04:58:34;30.90;;;29.40;;
11431;SDS011;5772;50.940;6.782;2023-04-24T05:00:59;30.07;;;28.47;;
11431;SDS011;5772;50.940;6.782;2023-04-24T05:03:26;28.70;;;27.40;;
11431;SDS011;5772;50.940;6.782;2023-04-24T05:05:51;31.40;;;29.47;;
11431;SDS011;5772;50.940;6.782;2023-04-24T05:08:17;31.67;;;30.10;;
11431;SDS011;5772;50.940;6.782;2023-04-24T05:10:42;31.03;;;29.37;;
11431;SDS011;5772;50.940;6.782;2023-04-24T05:13:08;30.13;;;28.63;;
11431;SDS011;5772;50.940;6.782;2023-04-24T05:15:33;31.27;;;29.47;;
11431;SDS011;5772;50.940;6.782;2023-04-24T05:17:58;30.67;;;29.23;;
11431;SDS011;5772;50.940;6.782;2023-04-24T05:20:25;30.40;;;28.90;;
11431;SDS011;5772;50.940;6.782;2023-04-24T05:22:50;31.13;;;29.43;;
11431;SDS011;5772;50.940;6.782;2023-04-24T05:25:16;30.60;;;29.13;;
11431;SDS011;5772;50.940;6.782;2023-04-24T05:27:41;30.23;;;28.73;;
11431;SDS011;5772;50.940;6.782;2023-04-24T05:30:07;30.53;;;29.03;;
11431;SDS011;5772;50.940;6.782;2023-04-24T05:32:33;32.20;;;30.67;;
11431;SDS011;5772;50.940;6.782;2023-04-24T05:34:58;31.10;;;29.60;;
11431;SDS011;5772;50.940;6.782;2023-04-24T05:37:25;31.43;;;29.50;;
11431;SDS011;5772;50.940;6.782;2023-04-24T05:39:51;33.80;;;31.97;;
11431;SDS011;5772;50.940;6.782;2023-04-24T05:42:16;32.60;;;30.90;;
11431;SDS011;5772;50.940;6.782;2023-04-24T05:44:41;31.23;;;29.73;;
11431;SDS011;5772;50.940;6.782;2023-04-24T05:47:07;33.43;;;31.93;;
11431;SDS011;5772;50.940;6.782;2023-04-24T05:49:32;33.17;;;31.57;;
11431;SDS011;5772;50.940;6.782;2023-04-24T05:51:57;32.43;;;30.83;;
11431;SDS011;5772;50.940;6.782;2023-04-24T05:54:24;34.87;;;33.20;;
11431;SDS011;5772;50.940;6.782;2023-04-24T05:56:49;32.27;;;30.77;;
11431;SDS011;5772;50.940;6.782;2023-04-24T05:59:15;33.63;;;32.10;;
11431;SDS011;5772;50.940;6.782;2023-04-24T06:01:40;32.03;;;30.53;;
11431;SDS011;5772;50.940;6.782;2023-04-24T06:04:05;30.13;;;28.80;;
11431;SDS011;5772;50.940;6.782;2023-04-24T06:06:31;29.27;;;27.87;;
11431;SDS011;5772;50.940;6.782;2023-04-24T06:08:56;29.20;;;27.90;;
11431;SDS011;5772;50.940;6.782;2023-04-24T06:11:23;29.43;;;28.07;;
11431;SDS011;5772;50.940;6.782;2023-04-24T06:13:48;26.10;;;25.00;;
11431;SDS011;5772;50.940;6.782;2023-04-24T06:16:14;24.20;;;23.13;;
11431;SDS011;5772;50.940;6.782;2023-04-24T06:18:39;23.10;;;22.10;;
11431;SDS011;5772;50.940;6.782;2023-04-24T06:21:04;21.47;;;20.57;;
11431;SDS011;5772;50.940;6.782;2023-04-24T06:23:30;21.07;;;20.07;;
11431;SDS011;5772;50.940;6.782;2023-04-24T06:25:55;19.93;;;19.03;;
11431;SDS011;5772;50.940;6.782;2023-04-24T06:28:22;22.80;;;21.80;;
11431;SDS011;5772;50.940;6.782;2023-04-24T06:30:47;25.53;;;24.43;;
11431;SDS011;5772;50.940;6.782;2023-04-24T06:33:13;24.23;;;23.17;;
11431;SDS011;5772;50.940;6.782;2023-04-24T06:35:38;21.27;;;20.37;;
11431;SDS011;5772;50.940;6.782;2023-04-24T06:38:03;24.07;;;22.87;;
11431;SDS011;5772;50.940;6.782;2023-04-24T06:40:29;23.27;;;22.27;;
11431;SDS011;5772;50.940;6.782;2023-04-24T06:42:54;23.27;;;22.27;;
11431;SDS011;5772;50.940;6.782;2023-04-24T06:45:21;22.80;;;21.90;;
11431;SDS011;5772;50.940;6.782;2023-04-24T06:47:47;24.17;;;23.17;;
11431;SDS011;5772;50.940;6.782;2023-04-24T06:50:12;24.80;;;23.63;;
11431;SDS011;5772;50.940;6.782;2023-04-24T06:52:37;27.63;;;26.43;;
11431;SDS011;5772;50.940;6.782;2023-04-24T06:55:03;28.63;;;27.33;;
11431;SDS011;5772;50.940;6.782;2023-04-24T06:57:29;26.93;;;25.83;;
11431;SDS011;5772;50.940;6.782;2023-04-24T06:59:55;28.37;;;27.17;;
11431;SDS011;5772;50.940;6.782;2023-04-24T07:02:21;30.43;;;28.80;;
11431;SDS011;5772;50.940;6.782;2023-04-24T07:04:47;27.27;;;26.07;;
11431;SDS011;5772;50.940;6.782;2023-04-24T07:07:13;28.43;;;27.13;;
11431;SDS011;5772;50.940;6.782;2023-04-24T07:09:38;27.77;;;26.47;;
11431;SDS011;5772;50.940;6.782;2023-04-24T07:12:03;29.57;;;28.27;;
11431;SDS011;5772;50.940;6.782;2023-04-24T07:14:29;29.40;;;28.10;;
11431;SDS011;5772;50.940;6.782;2023-04-24T07:16:54;29.50;;;28.17;;
11431;SDS011;5772;50.940;6.782;2023-04-24T07:19:21;30.13;;;28.80;;
11431;SDS011;5772;50.940;6.782;2023-04-24T07:21:46;33.10;;;31.60;;
11431;SDS011;5772;50.940;6.782;2023-04-24T07:24:12;32.60;;;31.17;;
11431;SDS011;5772;50.940;6.782;2023-04-24T07:26:37;32.80;;;31.50;;
11431;SDS011;5772;50.940;6.782;2023-04-24T07:29:03;32.30;;;30.90;;
11431;SDS011;5772;50.940;6.782;2023-04-24T07:31:28;32.93;;;31.53;;
11431;SDS011;5772;50.940;6.782;2023-04-24T07:33:53;31.43;;;30.07;;
11431;SDS011;5772;50.940;6.782;2023-04-24T07:36:20;32.90;;;31.40;;
11431;SDS011;5772;50.940;6.782;2023-04-24T07:38:45;34.57;;;32.87;;
11431;SDS011;5772;50.940;6.782;2023-04-24T07:41:11;33.57;;;32.17;;
11431;SDS011;5772;50.940;6.782;2023-04-24T07:43:36;34.33;;;32.97;;
11431;SDS011;5772;50.940;6.782;2023-04-24T07:46:02;35.60;;;34.20;;
11431;SDS011;5772;50.940;6.782;2023-04-24T07:48:27;35.30;;;33.90;;
11431;SDS011;5772;50.940;6.782;2023-04-24T07:50:52;36.50;;;35.03;;
11431;SDS011;5772;50.940;6.782;2023-04-24T07:53:19;36.07;;;34.37;;
11431;SDS011;5772;50.940;6.782;2023-04-24T07:55:45;38.17;;;36.60;;
11431;SDS011;5772;50.940;6.782;2023-04-24T07:58:10;36.43;;;34.93;;
11431;SDS011;5772;50.940;6.782;2023-04-24T08:00:36;33.67;;;32.27;;
11431;SDS011;5772;50.940;6.782;2023-04-24T08:03:01;35.57;;;33.83;;
11431;SDS011;5772;50.940;6.782;2023-04-24T08:05:27;33.53;;;32.03;;
11431;SDS011;5772;50.940;6.782;2023-04-24T08:07:52;33.00;;;31.60;;
11431;SDS011;5772;50.940;6.782;2023-04-24T08:10:19;31.73;;;30.37;;
11431;SDS011;5772;50.940;6.782;2023-04-24T08:12:45;35.10;;;33.57;;
11431;SDS011;5772;50.940;6.782;2023-04-24T08:15:10;36.33;;;34.87;;
11431;SDS011;5772;50.940;6.782;2023-04-24T08:17:36;31.77;;;30.47;;
11431;SDS011;5772;50.940;6.782;2023-04-24T08:20:01;31.80;;;30.50;;
11431;SDS011;5772;50.940;6.782;2023-04-24T08:22:27;29.57;;;28.37;;
11431;SDS011;5772;50.940;6.782;2023-04-24T08:24:53;30.70;;;29.43;;
11431;SDS011;5772;50.940;6.782;2023-04-24T08:27:20;33.33;;;32.00;;
11431;SDS011;5772;50.940;6.782;2023-04-24T08:29:45;30.07;;;28.87;;
11431;SDS011;5772;50.940;6.782;2023-04-24T08:32:11;28.97;;;27.67;;
11431;SDS011;5772;50.940;6.782;2023-04-24T08:34:36;34.83;;;33.17;;
11431;SDS011;5772;50.940;6.782;2023-04-24T08:37:02;34.17;;;32.77;;
11431;SDS011;5772;50.940;6.782;2023-04-24T08:39:27;33.20;;;31.80;;
11431;SDS011;5772;50.940;6.782;2023-04-24T08:41:52;33.80;;;32.37;;
11431;SDS011;5772;50.940;6.782;2023-04-24T08:44:19;32.93;;;31.33;;
11431;SDS011;5772;50.940;6.782;2023-04-24T08:46:45;31.57;;;30.27;;
11431;SDS011;5772;50.940;6.782;2023-04-24T08:49:13;32.07;;;30.77;;
11431;SDS011;5772;50.940;6.782;2023-04-24T08:51:39;34.23;;;32.80;;
11431;SDS011;5772;50.940;6.782;2023-04-24T08:54:05;34.43;;;32.93;;
11431;SDS011;5772;50.940;6.782;2023-04-24T08:56:30;33.07;;;31.47;;
11431;SDS011;5772;50.940;6.782;2023-04-24T08:58:58;33.23;;;31.57;;
11431;SDS011;5772;50.940;6.782;2023-04-24T09:01:25;32.77;;;31.27;;
11431;SDS011;5772;50.940;6.782;2023-04-24T09:03:51;32.27;;;30.80;;
11431;SDS011;5772;50.940;6.782;2023-04-24T09:06:18;31.53;;;30.13;;
11431;SDS011;5772;50.940;6.782;2023-04-24T09:08:44;34.67;;;33.13;;
11431;SDS011;5772;50.940;6.782;2023-04-24T09:11:10;34.87;;;33.20;;
11431;SDS011;5772;50.940;6.782;2023-04-24T09:13:36;35.83;;;34.23;;
11431;SDS011;5772;50.940;6.782;2023-04-24T09:16:02;35.40;;;33.70;;
11431;SDS011;5772;50.940;6.782;2023-04-24T09:18:28;36.80;;;34.80;;
11431;SDS011;5772;50.940;6.782;2023-04-24T09:20:57;37.10;;;34.50;;
11431;SDS011;5772;50.940;6.782;2023-04-24T09:23:22;36.57;;;34.57;;
11431;SDS011;5772;50.940;6.782;2023-04-24T09:25:53;36.77;;;35.03;;
11431;SDS011;5772;50.940;6.782;2023-04-24T09:28:22;37.93;;;36.20;;
11431;SDS011;5772;50.940;6.782;2023-04-24T09:31:01;41.70;;;39.53;;
11431;SDS011;5772;50.940;6.782;2023-04-24T09:33:29;44.83;;;42.43;;
11431;SDS011;5772;50.940;6.782;2023-04-24T09:35:54;42.53;;;40.43;;
11431;SDS011;5772;50.940;6.782;2023-04-24T09:38:19;44.60;;;42.20;;
11431;SDS011;5772;50.940;6.782;2023-04-24T09:40:55;42.47;;;40.37;;
11431;SDS011;5772;50.940;6.782;2023-04-24T09:43:24;43.07;;;40.83;;
11431;SDS011;5772;50.940;6.782;2023-04-24T09:45:51;46.80;;;43.97;;
11431;SDS011;5772;50.940;6.782;2023-04-24T09:48:20;47.27;;;44.73;;
11431;SDS011;5772;50.940;6.782;2023-04-24T09:50:56;46.70;;;44.20;;
11431;SDS011;5772;50.940;6.782;2023-04-24T09:53:23;48.93;;;46.30;;
11431;SDS011;5772;50.940;6.782;2023-04-24T09:55:49;46.53;;;43.87;;
11431;SDS011;5772;50.940;6.782;2023-04-24T09:58:14;50.37;;;47.30;;
11431;SDS011;5772;50.940;6.782;2023-04-24T10:00:40;43.23;;;41.13;;
11431;SDS011;5772;50.940;6.782;2023-04-24T10:03:05;38.57;;;36.37;;
11431;SDS011;5772;50.940;6.782;2023-04-24T10:05:32;34.87;;;32.93;;
11431;SDS011;5772;50.940;6.782;2023-04-24T10:08:03;34.17;;;32.57;;
11431;SDS011;5772;50.940;6.782;2023-04-24T10:10:29;33.33;;;31.83;;
11431;SDS011;5772;50.940;6.782;2023-04-24T10:12:55;32.77;;;30.97;;
11431;SDS011;5772;50.940;6.782;2023-04-24T10:15:20;32.00;;;30.23;;
11431;SDS011;5772;50.940;6.782;2023-04-24T10:17:46;32.50;;;30.80;;
11431;SDS011;5772;50.940;6.782;2023-04-24T10:20:12;31.50;;;29.83;;
11431;SDS011;5772;50.940;6.782;2023-04-24T10:22:39;31.37;;;29.73;;
11431;SDS011;5772;50.940;6.782;2023-04-24T10:25:05;32.03;;;29.90;;
11431;SDS011;5772;50.940;6.782;2023-04-24T10:27:31;31.20;;;29.70;;
11431;SDS011;5772;50.940;6.782;2023-04-24T10:29:57;33.97;;;32.13;;
11431;SDS011;5772;50.940;6.782;2023-04-24T10:32:23;34.83;;;32.70;;
11431;SDS011;5772;50.940;6.782;2023-04-24T10:34:48;37.27;;;35.20;;
11431;SDS011;5772;50.940;6.782;2023-04-24T10:37:14;32.83;;;31.20;;
11431;SDS011;5772;50.940;6.782;2023-04-24T10:39:40;33.90;;;31.87;;
11431;SDS011;5772;50.940;6.782;2023-04-24T10:42:13;35.60;;;33.37;;
11431;SDS011;5772;50.940;6.782;2023-04-24T10:44:39;33.00;;;31.50;;
11431;SDS011;5772;50.940;6.782;2023-04-24T10:47:05;35.10;;;33.13;;
11431;SDS011;5772;50.940;6.782;2023-04-24T10:49:30;28.30;;;26.73;;
11431;SDS011;5772;50.940;6.782;2023-04-24T10:51:59;26.60;;;25.20;;
11431;SDS011;5772;50.940;6.782;2023-04-24T10:54:25;26.87;;;25.30;;
11431;SDS011;5772;50.940;6.782;2023-04-24T10:56:53;26.00;;;24.50;;
11431;SDS011;5772;50.940;6.782;2023-04-24T10:59:23;26.13;;;24.63;;
11431;SDS011;5772;50.940;6.782;2023-04-24T11:01:52;24.70;;;23.53;;
11431;SDS011;5772;50.940;6.782;2023-04-24T11:04:21;24.43;;;23.33;;
11431;SDS011;5772;50.940;6.782;2023-04-24T11:06:54;24.90;;;23.50;;
11431;SDS011;5772;50.940;6.782;2023-04-24T11:09:19;23.60;;;22.47;;
11431;SDS011;5772;50.940;6.782;2023-04-24T11:11:46;24.30;;;22.83;;
11431;SDS011;5772;50.940;6.782;2023-04-24T11:14:15;24.67;;;23.33;;
11431;SDS011;5772;50.940;6.782;2023-04-24T11:16:44;23.73;;;22.33;;
11431;SDS011;5772;50.940;6.782;2023-04-24T11:19:10;23.47;;;22.27;;
11431;SDS011;5772;50.940;6.782;2023-04-24T11:21:43;23.47;;;21.73;;
11431;SDS011;5772;50.940;6.782;2023-04-24T11:24:29;21.57;;;20.43;;
11431;SDS011;5772;50.940;6.782;2023-04-24T11:26:56;22.67;;;21.43;;
11431;SDS011;5772;50.940;6.782;2023-04-24T11:29:24;22.07;;;21.07;;
11431;SDS011;5772;50.940;6.782;2023-04-24T11:32:13;23.13;;;21.73;;
11431;SDS011;5772;50.940;6.782;2023-04-24T11:34:40;23.93;;;22.37;;
11431;SDS011;5772;50.940;6.782;2023-04-24T11:37:05;23.37;;;22.27;;
11431;SDS011;5772;50.940;6.782;2023-04-24T11:39:36;22.63;;;21.43;;
11431;SDS011;5772;50.940;6.782;2023-04-24T11:42:02;21.83;;;20.73;;
11431;SDS011;5772;50.940;6.782;2023-04-24T11:44:29;21.63;;;20.63;;
11431;SDS011;5772;50.940;6.782;2023-04-24T11:46:55;20.57;;;19.67;;
11431;SDS011;5772;50.940;6.782;2023-04-24T11:49:20;21.70;;;20.60;;
11431;SDS011;5772;50.940;6.782;2023-04-24T11:51:46;20.63;;;19.73;;
11431;SDS011;5772;50.940;6.782;2023-04-24T11:54:11;20.60;;;19.27;;
11431;SDS011;5772;50.940;6.782;2023-04-24T11:56:37;20.53;;;19.33;;
11431;SDS011;5772;50.940;6.782;2023-04-24T11:59:03;19.10;;;18.10;;
11431;SDS011;5772;50.940;6.782;2023-04-24T12:01:30;18.83;;;17.90;;
11431;SDS011;5772;50.940;6.782;2023-04-24T12:04:07;18.17;;;17.37;;
11431;SDS011;5772;50.940;6.782;2023-04-24T12:06:33;19.33;;;18.17;;
11431;SDS011;5772;50.940;6.782;2023-04-24T12:08:58;18.83;;;17.70;;
11431;SDS011;5772;50.940;6.782;2023-04-24T12:11:23;19.03;;;18.03;;
11431;SDS011;5772;50.940;6.782;2023-04-24T12:13:49;20.97;;;19.70;;
11431;SDS011;5772;50.940;6.782;2023-04-24T12:16:14;19.53;;;18.33;;
11431;SDS011;5772;50.940;6.782;2023-04-24T12:18:45;20.00;;;18.33;;
11431;SDS011;5772;50.940;6.782;2023-04-24T12:21:17;21.57;;;20.03;;
11431;SDS011;5772;50.940;6.782;2023-04-24T12:23:43;20.63;;;19.43;;
11431;SDS011;5772;50.940;6.782;2023-04-24T12:26:08;21.53;;;20.27;;
11431;SDS011;5772;50.940;6.782;2023-04-24T12:28:34;18.80;;;17.90;;
11431;SDS011;5772;50.940;6.782;2023-04-24T12:31:00;20.50;;;19.40;;
11431;SDS011;5772;50.940;6.782;2023-04-24T12:33:26;20.67;;;19.67;;
11431;SDS011;5772;50.940;6.782;2023-04-24T12:35:53;19.33;;;18.03;;
11431;SDS011;5772;50.940;6.782;2023-04-24T12:38:22;20.93;;;19.83;;
11431;SDS011;5772;50.940;6.782;2023-04-24T12:40:48;18.73;;;17.90;;
11431;SDS011;5772;50.940;6.782;2023-04-24T12:43:26;18.57;;;17.37;;
11431;SDS011;5772;50.940;6.782;2023-04-24T12:45:52;18.70;;;17.70;;
11431;SDS011;5772;50.940;6.782;2023-04-24T12:48:17;19.80;;;18.83;;
11431;SDS011;5772;50.940;6.782;2023-04-24T12:50:43;19.73;;;18.70;;
11431;SDS011;5772;50.940;6.782;2023-04-24T12:53:10;18.60;;;17.60;;
11431;SDS011;5772;50.940;6.782;2023-04-24T12:55:35;19.10;;;18.10;;
11431;SDS011;5772;50.940;6.782;2023-04-24T12:58:00;20.97;;;19.23;;
11431;SDS011;5772;50.940;6.782;2023-04-24T13:00:26;18.77;;;17.70;;
11431;SDS011;5772;50.940;6.782;2023-04-24T13:02:51;19.83;;;18.33;;
11431;SDS011;5772;50.940;6.782;2023-04-24T13:05:17;20.50;;;19.30;;
11431;SDS011;5772;50.940;6.782;2023-04-24T13:07:42;19.33;;;18.00;;
11431;SDS011;5772;50.940;6.782;2023-04-24T13:10:09;18.03;;;17.13;;
11431;SDS011;5772;50.940;6.782;2023-04-24T13:12:35;19.10;;;18.17;;
11431;SDS011;5772;50.940;6.782;2023-04-24T13:15:00;18.73;;;17.60;;
11431;SDS011;5772;50.940;6.782;2023-04-24T13:17:26;19.80;;;18.47;;
11431;SDS011;5772;50.940;6.782;2023-04-24T13:19:51;20.87;;;19.47;;
11431;SDS011;5772;50.940;6.782;2023-04-24T13:22:19;19.70;;;18.53;;
11431;SDS011;5772;50.940;6.782;2023-04-24T13:24:45;21.40;;;20.33;;
11431;SDS011;5772;50.940;6.782;2023-04-24T13:27:12;20.13;;;18.93;;
11431;SDS011;5772;50.940;6.782;2023-04-24T13:29:37;20.67;;;19.27;;
11431;SDS011;5772;50.940;6.782;2023-04-24T13:32:02;18.73;;;17.40;;
11431;SDS011;5772;50.940;6.782;2023-04-24T13:34:28;20.63;;;19.47;;
11431;SDS011;5772;50.940;6.782;2023-04-24T13:36:54;18.70;;;17.73;;
11431;SDS011;5772;50.940;6.782;2023-04-24T13:39:20;19.13;;;17.83;;
11431;SDS011;5772;50.940;6.782;2023-04-24T13:41:46;20.97;;;19.97;;
11431;SDS011;5772;50.940;6.782;2023-04-24T13:44:12;20.80;;;19.67;;
11431;SDS011;5772;50.940;6.782;2023-04-24T13:46:38;22.43;;;21.43;;
11431;SDS011;5772;50.940;6.782;2023-04-24T13:49:03;19.97;;;18.77;;
11431;SDS011;5772;50.940;6.782;2023-04-24T13:51:29;20.00;;;18.90;;
11431;SDS011;5772;50.940;6.782;2023-04-24T13:53:54;19.57;;;18.50;;
11431;SDS011;5772;50.940;6.782;2023-04-24T13:56:20;21.37;;;20.37;;
11431;SDS011;5772;50.940;6.782;2023-04-24T13:58:45;20.77;;;19.13;;
11431;SDS011;5772;50.940;6.782;2023-04-24T14:01:12;18.40;;;17.50;;
11431;SDS011;5772;50.940;6.782;2023-04-24T14:03:38;18.10;;;17.17;;
11431;SDS011;5772;50.940;6.782;2023-04-24T14:06:03;20.57;;;19.57;;
11431;SDS011;5772;50.940;6.782;2023-04-24T14:08:29;19.20;;;18.30;;
11431;SDS011;5772;50.940;6.782;2023-04-24T14:10:54;20.83;;;19.63;;
11431;SDS011;5772;50.940;6.782;2023-04-24T14:13:20;17.90;;;17.10;;
11431;SDS011;5772;50.940;6.782;2023-04-24T14:15:45;19.10;;;18.10;;
11431;SDS011;5772;50.940;6.782;2023-04-24T14:18:12;19.47;;;18.37;;
11431;SDS011;5772;50.940;6.782;2023-04-24T14:20:38;18.33;;;17.23;;
11431;SDS011;5772;50.940;6.782;2023-04-24T14:23:03;19.43;;;18.50;;
11431;SDS011;5772;50.940;6.782;2023-04-24T14:25:28;19.90;;;18.73;;
11431;SDS011;5772;50.940;6.782;2023-04-24T14:27:54;19.73;;;18.63;;